Time;durP1;ratioP1;P1;durP2;ratioP2;P2;SDS_P1;SDS_P2;PMS_P1;PMS_P2;Temp;Humidity;BMP_temperature;BMP_pressure;BME280_temperature;BME280_humidity;BME280_pressure;Samples;Min_cycle;Max_cycle;Signal;HPM_P1;HPM_P2
2023/09/24 00:01:45;;;;;;;8.98;4.30;;;12.00;99.90;;;;;;6185018;23;20113;-92
2023/09/24 00:04:11;;;;;;;6.65;4.40;;;;;;;;;;6183625;23;20040;-92
2023/09/24 00:06:37;;;;;;;6.70;4.65;;;12.10;99.90;;;;;;6159750;23;20019;-92
2023/09/24 00:09:03;;;;;;;6.65;4.63;;;11.90;99.90;;;;;;6162119;23;20311;-94
2023/09/24 00:11:29;;;;;;;4.63;4.22;;;11.90;99.90;;;;;;6185855;23;20020;-94
2023/09/24 00:13:55;;;;;;;4.30;3.78;;;11.90;99.90;;;;;;6184699;23;20008;-94
2023/09/24 00:16:21;;;;;;;5.78;3.60;;;12.10;99.90;;;;;;6159307;23;20022;-94
2023/09/24 00:18:46;;;;;;;5.90;4.55;;;11.80;99.90;;;;;;6184216;23;20012;-94
2023/09/24 00:21:12;;;;;;;5.40;4.25;;;11.80;99.90;;;;;;6197337;23;20147;-93
2023/09/24 00:23:39;;;;;;;6.18;4.07;;;12.00;99.90;;;;;;6190228;23;20036;-94
2023/09/24 00:26:05;;;;;;;7.40;4.90;;;11.70;99.90;;;;;;6193030;23;20008;-94
2023/09/24 00:28:31;;;;;;;6.95;4.90;;;11.70;99.90;;;;;;6186950;23;20017;-94
2023/09/24 00:30:58;;;;;;;4.85;4.43;;;11.60;99.90;;;;;;6186719;23;20472;-94
2023/09/24 00:33:24;;;;;;;4.88;4.43;;;11.60;99.90;;;;;;6186773;23;20019;-95
2023/09/24 00:35:51;;;;;;;7.00;4.75;;;11.60;99.90;;;;;;6186776;23;20473;-94
2023/09/24 00:38:20;;;;;;;5.83;3.97;;;11.70;99.90;;;;;;6161676;23;20009;-94
2023/09/24 00:40:46;;;;;;;6.63;4.03;;;11.60;99.90;;;;;;6185234;23;20009;-94
2023/09/24 00:43:29;;;;;;;5.38;4.22;;;11.60;99.90;;;;;;6184392;23;20013;-93
2023/09/24 00:45:57;;;;;;;6.20;4.00;;;11.50;99.90;;;;;;6183639;23;20027;-94
2023/09/24 00:48:28;;;;;;;7.75;4.95;;;11.50;99.90;;;;;;6187177;23;20038;-93
2023/09/24 00:50:58;;;;;;;8.32;4.97;;;11.50;99.90;;;;;;6185483;23;20067;-94
2023/09/24 00:53:28;;;;;;;5.93;4.38;;;11.50;99.90;;;;;;6184846;23;20013;-93
2023/09/24 00:55:59;;;;;;;6.40;4.57;;;11.50;99.90;;;;;;6182995;23;20012;-92
2023/09/24 00:58:27;;;;;;;7.10;5.10;;;11.50;99.90;;;;;;6183949;23;20020;-91
2023/09/24 01:00:54;;;;;;;6.50;5.20;;;11.50;99.90;;;;;;6184456;23;20012;-92
2023/09/24 01:03:24;;;;;;;16.60;6.37;;;11.50;99.90;;;;;;6184688;23;20098;-91
2023/09/24 01:05:51;;;;;;;29.67;6.25;;;11.60;99.90;;;;;;6183908;23;20709;-93
2023/09/24 01:08:22;;;;;;;25.40;6.10;;;11.60;99.90;;;;;;6183900;23;20114;-92
2023/09/24 01:10:48;;;;;;;43.28;6.07;;;11.50;99.90;;;;;;6193553;23;20047;-91
2023/09/24 01:13:19;;;;;;;29.30;5.93;;;11.50;99.90;;;;;;6178212;23;20024;-91
2023/09/24 01:15:48;;;;;;;14.23;4.78;;;11.60;99.90;;;;;;6191428;23;20118;-90
2023/09/24 01:18:14;;;;;;;9.73;5.10;;;11.60;99.90;;;;;;6186128;23;20016;-91
2023/09/24 01:20:40;;;;;;;7.75;5.15;;;11.60;99.90;;;;;;6185335;23;20021;-91
2023/09/24 01:23:10;;;;;;;8.40;5.00;;;11.60;99.90;;;;;;6159005;23;20012;-92
2023/09/24 01:25:36;;;;;;;6.70;4.90;;;11.50;99.90;;;;;;6184387;23;20092;-93
2023/09/24 01:28:04;;;;;;;6.78;5.00;;;11.50;99.90;;;;;;6185782;23;20448;-92
2023/09/24 01:30:30;;;;;;;7.20;5.28;;;11.40;99.90;;;;;;6182547;23;20410;-92
2023/09/24 01:33:00;;;;;;;7.30;4.88;;;11.40;99.90;;;;;;6183613;23;20020;-92
2023/09/24 01:35:27;;;;;;;9.98;5.25;;;11.30;99.90;;;;;;6154020;23;20017;-92
2023/09/24 01:38:04;;;;;;;6.75;5.00;;;11.40;99.90;;;;;;6127848;23;20013;-93
2023/09/24 01:40:35;;;;;;;6.93;5.03;;;11.30;99.90;;;;;;6157279;23;19997;-96
2023/09/24 20:26:54;;;;;;;2.85;1.70;;;13.40;99.90;;;;;;6190094;22;20052;-47
2023/09/24 20:29:19;;;;;;;4.97;2.25;;;13.40;99.90;;;;;;6213330;23;20444;-47
2023/09/24 20:31:45;;;;;;;7.18;2.00;;;13.30;99.90;;;;;;6212464;23;20547;-47
2023/09/24 20:34:11;;;;;;;3.20;1.83;;;13.40;99.90;;;;;;6214304;23;20424;-47
2023/09/24 20:36:37;;;;;;;2.35;1.80;;;13.40;99.90;;;;;;6213955;23;20008;-47
2023/09/24 20:39:05;;;;;;;6.20;1.92;;;13.40;99.90;;;;;;6186991;23;20012;-47
2023/09/24 20:41:33;;;;;;;2.65;1.75;;;13.40;99.90;;;;;;6214230;23;20363;-47
2023/09/24 20:43:59;;;;;;;4.30;1.75;;;13.30;99.90;;;;;;6213789;23;20467;-47
2023/09/24 20:46:41;;;;;;;3.78;1.60;;;13.30;99.90;;;;;;6213541;23;20046;-48
2023/09/24 20:49:08;;;;;;;2.55;1.73;;;13.30;99.90;;;;;;6212846;23;20027;-48
2023/09/24 20:51:35;;;;;;;4.03;2.35;;;13.40;99.90;;;;;;6216692;23;20060;-48
2023/09/24 20:54:01;;;;;;;4.72;1.70;;;13.30;99.90;;;;;;6214448;23;20061;-46
2023/09/24 20:56:27;;;;;;;3.05;1.67;;;13.30;99.90;;;;;;6213329;23;20135;-46
2023/09/24 20:58:59;;;;;;;4.25;1.90;;;13.30;99.90;;;;;;6213636;23;20078;-46
2023/09/24 21:01:25;;;;;;;3.13;1.80;;;13.30;99.90;;;;;;6213107;23;20072;-49
2023/09/24 21:03:51;;;;;;;2.95;1.80;;;13.30;99.90;;;;;;6212365;23;20032;-47
2023/09/24 21:06:16;;;;;;;3.53;1.52;;;13.30;99.90;;;;;;6213467;23;20020;-46
2023/09/24 21:08:42;;;;;;;3.72;1.80;;;13.30;99.90;;;;;;6208135;23;20016;-49
2023/09/24 21:11:08;;;;;;;3.95;1.70;;;13.20;99.90;;;;;;6209053;23;20076;-48
2023/09/24 21:13:33;;;;;;;4.43;2.03;;;13.10;99.90;;;;;;6208347;23;21056;-48
2023/09/24 21:16:01;;;;;;;3.15;2.05;;;13.10;99.90;;;;;;6206853;23;20060;-47
2023/09/24 21:18:27;;;;;;;3.28;1.75;;;13.10;99.90;;;;;;6210024;23;20021;-47
2023/09/24 21:20:53;;;;;;;2.65;1.80;;;13.00;99.90;;;;;;6210529;23;20016;-48
2023/09/24 21:23:19;;;;;;;2.60;1.70;;;12.90;99.90;;;;;;6212979;23;20035;-46
2023/09/24 21:25:44;;;;;;;1.83;1.73;;;12.90;99.90;;;;;;6212183;23;20440;-47
2023/09/24 21:28:10;;;;;;;3.88;2.00;;;12.90;99.90;;;;;;6232641;23;20174;-49
2023/09/24 21:30:35;;;;;;;4.03;2.00;;;12.80;99.90;;;;;;6243236;23;20020;-48
2023/09/24 21:33:01;;;;;;;2.67;1.98;;;12.80;99.90;;;;;;6241794;23;20033;-50
2023/09/24 21:35:29;;;;;;;4.53;1.60;;;12.80;99.90;;;;;;6243228;23;20401;-50
2023/09/24 21:37:54;;;;;;;2.40;1.75;;;12.80;99.90;;;;;;6244469;22;20019;-48
2023/09/24 21:40:20;;;;;;;5.13;2.00;;;12.70;99.90;;;;;;6243471;23;20012;-46
2023/09/24 21:42:46;;;;;;;3.92;1.90;;;12.70;99.90;;;;;;6244145;22;20086;-50
2023/09/24 21:45:11;;;;;;;3.30;2.03;;;12.70;99.90;;;;;;6242840;23;20324;-47
2023/09/24 21:47:37;;;;;;;3.78;2.30;;;;;;;;;;6244220;23;20020;-51
2023/09/24 21:50:04;;;;;;;6.65;1.98;;;12.70;99.90;;;;;;6242917;23;20020;-46
2023/09/24 21:52:29;;;;;;;3.95;1.77;;;12.60;99.90;;;;;;6244912;22;20013;-48
2023/09/24 21:54:55;;;;;;;3.78;2.22;;;12.60;99.90;;;;;;6243838;23;20066;-46
2023/09/24 21:57:23;;;;;;;3.58;2.00;;;12.60;99.90;;;;;;6243975;23;20091;-47
2023/09/24 21:59:49;;;;;;;3.50;2.00;;;12.60;99.90;;;;;;6243902;22;20012;-47
2023/09/24 22:02:15;;;;;;;3.58;1.98;;;12.60;99.90;;;;;;6243316;22;20019;-46
2023/09/24 22:04:40;;;;;;;3.13;2.15;;;12.60;99.90;;;;;;6243597;23;20358;-46
2023/09/24 22:07:07;;;;;;;4.57;1.95;;;12.50;99.90;;;;;;6242008;23;20153;-47
2023/09/24 22:09:33;;;;;;;3.85;2.10;;;12.50;99.90;;;;;;6243797;22;20035;-47
2023/09/24 22:11:58;;;;;;;2.45;2.15;;;12.50;99.90;;;;;;6245448;23;20424;-46
2023/09/24 22:14:24;;;;;;;3.03;2.10;;;12.50;99.90;;;;;;6244198;23;20015;-47
2023/09/24 22:16:51;;;;;;;3.60;2.08;;;12.40;99.90;;;;;;6245977;23;20415;-47
2023/09/24 22:19:16;;;;;;;3.77;2.00;;;12.50;99.90;;;;;;6243856;23;20372;-50
2023/09/24 22:21:42;;;;;;;3.83;2.00;;;12.40;99.90;;;;;;6244825;23;20031;-50
2023/09/24 22:24:08;;;;;;;3.28;1.90;;;12.40;99.90;;;;;;6243515;22;20012;-46
2023/09/24 22:26:33;;;;;;;3.22;2.13;;;12.40;99.90;;;;;;6245568;22;20016;-50
2023/09/24 22:28:59;;;;;;;2.97;2.10;;;12.40;99.90;;;;;;6274668;22;20020;-48
2023/09/24 22:31:26;;;;;;;3.83;2.00;;;12.40;99.90;;;;;;6271165;22;20016;-47
2023/09/24 22:33:51;;;;;;;5.05;2.05;;;12.40;99.90;;;;;;6218278;22;20032;-47
2023/09/24 22:36:18;;;;;;;4.93;2.40;;;12.40;99.90;;;;;;6273686;22;20018;-47
2023/09/24 22:38:44;;;;;;;2.35;2.10;;;12.40;99.90;;;;;;6273242;22;20087;-50
2023/09/24 22:41:10;;;;;;;2.45;2.00;;;12.40;99.90;;;;;;6275524;22;20050;-47
2023/09/24 22:43:36;;;;;;;3.97;2.22;;;12.30;99.90;;;;;;6275558;22;20018;-50
2023/09/24 22:46:01;;;;;;;2.90;1.73;;;12.30;99.90;;;;;;6273874;22;20015;-48
2023/09/24 22:48:27;;;;;;;3.30;1.83;;;12.30;99.90;;;;;;6275744;22;20034;-47
2023/09/24 22:50:53;;;;;;;3.40;2.03;;;12.30;99.90;;;;;;6273826;22;20061;-47
2023/09/24 22:53:19;;;;;;;3.47;2.00;;;12.30;99.90;;;;;;6276546;22;20012;-49
2023/09/24 22:55:45;;;;;;;3.65;2.08;;;12.30;99.90;;;;;;6275573;22;20016;-48
2023/09/24 22:58:11;;;;;;;4.22;2.10;;;12.20;99.90;;;;;;6275655;22;20020;-48
2023/09/24 23:00:37;;;;;;;6.03;2.20;;;12.20;99.90;;;;;;6274849;22;20012;-50
2023/09/24 23:03:03;;;;;;;3.15;1.90;;;12.10;99.90;;;;;;6273879;22;20133;-47
2023/09/24 23:05:28;;;;;;;3.78;2.10;;;12.10;99.90;;;;;;6270717;22;20016;-47
2023/09/24 23:07:54;;;;;;;3.95;2.22;;;12.00;99.90;;;;;;6270157;22;20516;-46
2023/09/24 23:10:21;;;;;;;3.88;2.20;;;12.00;99.90;;;;;;6269784;22;20018;-46
2023/09/24 23:12:48;;;;;;;3.67;2.20;;;12.00;99.90;;;;;;6270187;22;20479;-49
2023/09/24 23:15:16;;;;;;;2.63;1.90;;;11.90;99.90;;;;;;6270538;22;20012;-46
2023/09/24 23:17:42;;;;;;;;;;;11.80;99.90;;;;;;6271765;22;20008;-47
2023/09/24 23:20:11;;;;;;;3.28;2.20;;;11.80;99.90;;;;;;6270330;22;20400;-47
2023/09/24 23:22:39;;;;;;;2.22;2.03;;;11.70;99.90;;;;;;6271039;22;20058;-50
2023/09/24 23:25:06;;;;;;;3.55;2.20;;;11.70;99.90;;;;;;6272757;22;20011;-46
2023/09/24 23:27:32;;;;;;;3.05;2.25;;;11.70;99.90;;;;;;6274035;22;20014;-47
2023/09/24 23:29:57;;;;;;;5.10;2.20;;;11.70;99.90;;;;;;6269592;22;20094;-46
2023/09/24 23:32:23;;;;;;;2.70;2.10;;;11.70;99.90;;;;;;6271650;22;20020;-46
2023/09/24 23:34:49;;;;;;;4.20;2.22;;;11.60;99.90;;;;;;6274863;22;20008;-47
2023/09/24 23:37:14;;;;;;;4.28;2.42;;;11.60;99.90;;;;;;6274676;22;20021;-50
2023/09/24 23:39:40;;;;;;;3.80;2.13;;;11.60;99.90;;;;;;6248256;22;20385;-45
2023/09/24 23:42:06;;;;;;;4.63;2.50;;;11.60;99.90;;;;;;6274320;22;20066;-49
2023/09/24 23:44:32;;;;;;;4.78;2.75;;;11.60;99.90;;;;;;6274713;22;20082;-50
2023/09/24 23:46:58;;;;;;;2.88;2.58;;;11.50;99.90;;;;;;6274831;22;20444;-47
2023/09/24 23:49:25;;;;;;;4.40;2.63;;;11.50;99.90;;;;;;6270316;22;20024;-47
2023/09/24 23:51:51;;;;;;;3.50;2.67;;;11.50;99.90;;;;;;6270620;22;20023;-50
2023/09/24 23:54:16;;;;;;;3.13;2.33;;;11.50;99.90;;;;;;6245334;22;20023;-48
2023/09/24 23:56:42;;;;;;;5.63;2.58;;;11.50;99.90;;;;;;6275387;22;20354;-50
2023/09/24 23:59:08;;;;;;;3.20;2.65;;;11.50;99.90;;;;;;6275023;22;20107;-49
